Time;durP1;ratioP1;P1;durP2;ratioP2;P2;SDS_P1;SDS_P2;PMS_P1;PMS_P2;Temp;Humidity;BMP_temperature;BMP_pressure;BME280_temperature;BME280_humidity;BME280_pressure;Samples;Min_cycle;Max_cycle;Signal;HPM_P1;HPM_P2
2023/03/26 00:01:22;;;;;;;4.53;2.00;;;11.20;99.90;;;;;;4997026;28;20445;-91
2023/03/26 00:03:56;;;;;;;5.47;2.40;;;11.20;99.90;;;;;;4980541;28;20489;-87
2023/03/26 00:06:32;;;;;;;6.57;2.40;;;11.20;99.90;;;;;;4980233;28;20813;-92
2023/03/26 00:08:58;;;;;;;8.20;2.67;;;11.20;99.90;;;;;;4998547;28;20428;-91
2023/03/26 00:11:27;;;;;;;8.23;3.37;;;11.20;99.90;;;;;;4980310;28;20454;-90
2023/03/26 00:13:55;;;;;;;10.23;2.97;;;11.20;99.90;;;;;;4996290;28;20440;-90
2023/03/26 00:16:25;;;;;;;10.33;2.40;;;11.20;99.90;;;;;;4997008;28;20485;-90
2023/03/26 00:18:52;;;;;;;8.57;3.00;;;11.20;99.90;;;;;;4990865;28;20886;-91
2023/03/26 00:21:26;;;;;;;14.83;3.57;;;11.20;99.90;;;;;;4996072;28;20499;-90
2023/03/26 00:23:58;;;;;;;10.53;2.90;;;11.20;99.90;;;;;;4996855;28;20427;-91
2023/03/26 00:26:28;;;;;;;7.10;2.80;;;11.20;99.90;;;;;;5012080;28;20472;-89
2023/03/26 00:29:02;;;;;;;9.53;3.07;;;11.20;99.90;;;;;;4996030;28;20464;-89
2023/03/26 00:31:29;;;;;;;8.23;2.70;;;11.20;99.90;;;;;;4979857;28;20789;-88
2023/03/26 00:33:55;;;;;;;9.33;3.03;;;11.20;99.90;;;;;;4992449;28;20455;-90
2023/03/26 00:36:25;;;;;;;13.17;2.80;;;11.20;99.90;;;;;;5006202;28;20736;-90
2023/03/26 00:38:52;;;;;;;10.83;2.67;;;11.20;99.90;;;;;;4996725;28;20424;-91
2023/03/26 00:41:29;;;;;;;14.00;3.47;;;11.20;99.90;;;;;;4979747;28;20428;-90
2023/03/26 00:43:58;;;;;;;9.50;2.80;;;11.20;99.90;;;;;;4996373;28;20433;-90
2023/03/26 00:46:29;;;;;;;13.37;3.20;;;11.20;99.90;;;;;;4979460;28;20475;-90
2023/03/26 00:49:00;;;;;;;8.37;2.50;;;11.20;99.90;;;;;;4995662;28;20511;-91
2023/03/26 00:51:29;;;;;;;12.40;2.73;;;11.20;99.90;;;;;;4995312;28;20440;-88
2023/03/26 00:53:57;;;;;;;12.43;3.00;;;11.20;99.90;;;;;;4996405;28;20411;-90
2023/03/26 00:56:26;;;;;;;8.17;2.33;;;11.20;99.90;;;;;;4995762;28;20444;-90
2023/03/26 00:58:56;;;;;;;7.27;3.20;;;11.20;99.90;;;;;;4980129;28;20426;-89
2023/03/26 01:01:27;;;;;;;12.70;2.43;;;11.20;99.90;;;;;;5011664;28;20493;-90
2023/03/26 01:03:57;;;;;;;8.37;3.50;;;11.10;99.90;;;;;;4979607;28;20453;-90
2023/03/26 01:06:27;;;;;;;10.77;2.80;;;11.10;99.90;;;;;;4995594;28;20515;-90
2023/03/26 01:08:58;;;;;;;13.20;3.00;;;11.10;99.90;;;;;;4995203;28;20818;-88
2023/03/26 01:11:32;;;;;;;12.27;3.27;;;11.10;99.90;;;;;;4979307;28;20846;-89
2023/03/26 01:14:18;;;;;;;6.93;3.30;;;11.10;99.90;;;;;;4979273;28;20429;-89
2023/03/26 01:17:05;;;;;;;14.97;3.40;;;11.10;99.90;;;;;;5011088;28;20433;-90
2023/03/26 01:19:53;;;;;;;11.90;3.23;;;11.10;99.90;;;;;;4995239;28;20910;-90
2023/03/26 01:22:24;;;;;;;13.17;3.17;;;11.10;99.90;;;;;;4995339;28;20472;-90
2023/03/26 01:24:55;;;;;;;15.37;3.60;;;11.10;99.90;;;;;;4995320;28;20457;-89
2023/03/26 01:27:24;;;;;;;8.80;2.93;;;11.10;99.90;;;;;;4992026;28;20557;-88
2023/03/26 01:30:00;;;;;;;9.17;3.13;;;11.10;99.90;;;;;;4992016;28;20423;-89
2023/03/26 01:32:34;;;;;;;8.50;2.90;;;11.10;99.90;;;;;;4992269;28;20416;-89
2023/03/26 01:35:21;;;;;;;12.67;3.63;;;11.10;99.90;;;;;;4995287;28;20443;-90
2023/03/26 01:38:09;;;;;;;14.27;3.70;;;11.10;99.90;;;;;;4978234;28;20934;-90
2023/03/26 01:41:03;;;;;;;13.23;3.23;;;11.10;99.90;;;;;;4997892;28;20442;-89
2023/03/26 01:43:47;;;;;;;14.50;3.00;;;11.10;99.90;;;;;;4999438;28;20464;-90
2023/03/26 01:46:16;;;;;;;14.03;3.43;;;11.10;99.90;;;;;;4998945;28;20508;-90
2023/03/26 01:48:44;;;;;;;11.67;3.57;;;11.10;99.90;;;;;;4999393;28;20423;-89
2023/03/26 01:51:24;;;;;;;12.13;3.33;;;11.10;99.90;;;;;;4998602;28;20469;-89
2023/03/26 01:53:51;;;;;;;16.90;3.73;;;11.10;99.90;;;;;;4999280;28;20448;-90
2023/03/26 01:56:41;;;;;;;11.73;3.40;;;11.00;99.90;;;;;;4998377;28;20509;-89
2023/03/26 01:59:24;;;;;;;9.73;3.53;;;11.10;99.90;;;;;;4998662;28;20430;-90
2023/03/26 02:02:15;;;;;;;13.20;3.20;;;11.00;99.90;;;;;;4998263;28;20434;-88
2023/03/26 02:05:04;;;;;;;5.70;2.93;;;11.00;99.90;;;;;;4978930;28;20451;-89
2023/03/26 02:08:10;;;;;;;18.07;3.87;;;11.00;99.90;;;;;;4983866;28;20464;-88
2023/03/26 02:10:45;;;;;;;11.03;3.00;;;11.00;99.90;;;;;;4971931;28;20486;-90
2023/03/26 02:13:17;;;;;;;9.70;2.97;;;11.00;99.90;;;;;;4981285;28;20575;-90
2023/03/26 02:16:03;;;;;;;10.63;3.10;;;11.00;99.90;;;;;;4979449;28;20439;-90
2023/03/26 02:18:37;;;;;;;14.00;3.37;;;11.00;99.90;;;;;;4995035;28;20468;-90
2023/03/26 02:21:11;;;;;;;10.03;3.10;;;11.00;99.90;;;;;;4993658;28;20453;-89
2023/03/26 02:23:45;;;;;;;8.67;2.87;;;11.00;99.90;;;;;;4981830;28;20440;-90
2023/03/26 02:26:13;;;;;;;7.77;2.90;;;11.00;99.90;;;;;;4998555;28;20934;-89
2023/03/26 02:28:51;;;;;;;6.20;2.60;;;11.00;99.90;;;;;;4964628;28;20761;-88
2023/03/26 02:31:18;;;;;;;8.57;2.83;;;11.00;99.90;;;;;;4978380;28;20507;-90
2023/03/26 02:33:49;;;;;;;7.10;2.87;;;11.00;99.90;;;;;;4997720;28;20841;-89
2023/03/26 02:36:18;;;;;;;9.50;3.20;;;11.00;99.90;;;;;;4998195;28;20545;-90
2023/03/26 02:38:46;;;;;;;6.80;2.67;;;11.00;99.90;;;;;;5013671;28;20453;-90
2023/03/26 02:41:15;;;;;;;4.60;2.47;;;11.00;99.90;;;;;;4997805;28;20450;-88
2023/03/26 02:43:54;;;;;;;8.70;3.77;;;11.00;99.90;;;;;;4997399;28;20540;-88
2023/03/26 02:46:24;;;;;;;8.53;2.83;;;11.00;99.90;;;;;;4997831;28;20523;-89
2023/03/26 02:49:07;;;;;;;10.10;2.87;;;11.00;99.90;;;;;;4997385;28;20442;-90
2023/03/26 02:51:36;;;;;;;10.10;2.67;;;11.00;99.90;;;;;;4997000;28;20780;-89
2023/03/26 02:54:08;;;;;;;9.83;2.83;;;11.00;99.90;;;;;;4997679;28;20433;-87
2023/03/26 02:56:34;;;;;;;8.40;3.10;;;11.00;99.90;;;;;;4997699;28;20445;-89
2023/03/26 02:59:17;;;;;;;10.53;2.73;;;11.00;99.90;;;;;;4981216;28;20531;-89
2023/03/26 03:01:50;;;;;;;10.87;4.10;;;11.00;99.90;;;;;;4985924;28;20533;-88
2023/03/26 03:04:20;;;;;;;5.83;2.83;;;11.00;99.90;;;;;;4977871;28;20510;-88
2023/03/26 03:06:51;;;;;;;12.20;2.67;;;11.00;99.90;;;;;;5008974;28;20466;-89
2023/03/26 03:09:21;;;;;;;6.53;2.70;;;10.90;99.90;;;;;;5013147;28;20448;-89
2023/03/26 03:12:15;;;;;;;11.27;3.23;;;11.00;99.90;;;;;;4988219;28;20453;-89
2023/03/26 03:14:41;;;;;;;9.43;2.90;;;10.90;99.90;;;;;;4980807;28;20488;-88
2023/03/26 03:17:10;;;;;;;7.97;2.70;;;10.90;99.90;;;;;;4997689;28;20449;-89
2023/03/26 03:19:38;;;;;;;8.70;2.97;;;10.90;99.90;;;;;;4996777;28;20454;-89
2023/03/26 03:22:06;;;;;;;10.00;2.93;;;10.90;99.90;;;;;;5013202;28;20447;-89
2023/03/26 03:24:37;;;;;;;13.33;3.67;;;10.90;99.90;;;;;;4997007;28;20442;-89
2023/03/26 03:27:04;;;;;;;12.00;2.50;;;10.90;99.90;;;;;;4993585;28;20800;-89
2023/03/26 03:29:36;;;;;;;10.80;2.83;;;10.90;99.90;;;;;;4987184;28;20441;-89
2023/03/26 03:32:22;;;;;;;9.67;2.90;;;10.90;99.90;;;;;;4989708;28;20453;-90
2023/03/26 03:34:52;;;;;;;8.10;2.67;;;10.90;99.90;;;;;;4980475;28;20766;-88
2023/03/26 03:37:19;;;;;;;12.80;2.93;;;10.90;99.90;;;;;;4980450;28;20544;-89
2023/03/26 03:39:52;;;;;;;7.87;2.83;;;10.90;99.90;;;;;;4996108;28;20519;-89
2023/03/26 03:42:28;;;;;;;6.57;2.33;;;10.90;99.90;;;;;;4980835;28;20426;-88
2023/03/26 03:45:01;;;;;;;6.80;2.53;;;10.90;99.90;;;;;;5001906;28;20446;-89
2023/03/26 03:47:47;;;;;;;5.17;2.20;;;10.90;99.90;;;;;;4978223;28;20453;-90
2023/03/26 03:50:18;;;;;;;9.73;3.53;;;10.90;99.90;;;;;;4975634;28;20760;-89
2023/03/26 03:53:05;;;;;;;8.77;2.60;;;10.90;99.90;;;;;;4998792;28;20429;-89
2023/03/26 03:55:31;;;;;;;8.57;2.80;;;10.90;99.90;;;;;;4979704;28;20470;-89
2023/03/26 03:57:57;;;;;;;9.60;2.80;;;10.90;99.90;;;;;;4993798;28;20483;-89
2023/03/26 04:00:27;;;;;;;5.13;2.73;;;10.90;99.90;;;;;;4991527;28;20894;-86
2023/03/26 04:03:16;;;;;;;6.97;3.60;;;10.90;99.90;;;;;;4995179;28;20547;-89
2023/03/26 04:05:48;;;;;;;7.27;2.30;;;10.80;99.90;;;;;;4980080;28;20451;-89
2023/03/26 04:08:15;;;;;;;6.07;2.60;;;10.80;99.90;;;;;;4980021;28;20448;-89
2023/03/26 04:10:50;;;;;;;7.23;2.23;;;10.80;99.90;;;;;;4995746;28;20762;-90
2023/03/26 04:13:19;;;;;;;4.97;2.80;;;10.80;99.90;;;;;;4996177;28;20795;-89
2023/03/26 04:15:59;;;;;;;7.67;2.07;;;10.80;99.90;;;;;;4976613;28;20909;-89
2023/03/26 04:18:31;;;;;;;6.47;2.43;;;10.80;99.90;;;;;;4993352;28;20471;-90
2023/03/26 04:21:06;;;;;;;7.00;2.90;;;10.80;99.90;;;;;;4980236;28;20422;-89
2023/03/26 04:23:33;;;;;;;5.20;2.00;;;10.80;99.90;;;;;;4995474;28;20429;-89
2023/03/26 04:26:09;;;;;;;6.80;1.83;;;10.80;99.90;;;;;;4995508;28;20942;-90
2023/03/26 04:29:01;;;;;;;9.67;2.43;;;10.80;99.90;;;;;;5008909;28;20457;-90
2023/03/26 04:31:29;;;;;;;6.10;2.27;;;10.80;99.90;;;;;;4980055;28;20520;-90
2023/03/26 04:34:06;;;;;;;11.80;2.83;;;10.80;99.90;;;;;;5011787;28;20422;-90
2023/03/26 04:36:39;;;;;;;5.00;2.23;;;10.80;99.90;;;;;;5012285;28;20851;-90
2023/03/26 04:39:05;;;;;;;6.80;2.20;;;10.80;99.90;;;;;;4995518;28;20515;-89
2023/03/26 04:41:57;;;;;;;5.90;2.70;;;10.80;99.90;;;;;;4987522;28;20516;-90
2023/03/26 04:44:29;;;;;;;4.20;1.90;;;10.80;99.90;;;;;;4995822;28;20442;-91
2023/03/26 04:47:00;;;;;;;4.30;2.07;;;10.80;99.90;;;;;;4996590;28;20465;-91
2023/03/26 04:49:32;;;;;;;7.37;2.80;;;10.80;99.90;;;;;;4995797;28;20421;-92
2023/03/26 04:51:58;;;;;;;4.87;2.13;;;10.80;99.90;;;;;;4995627;28;20478;-92
2023/03/26 04:54:44;;;;;;;7.83;2.40;;;10.70;99.90;;;;;;4995527;28;20441;-90
2023/03/26 04:57:20;;;;;;;8.77;2.63;;;10.80;99.90;;;;;;5011715;28;20492;-92
2023/03/26 04:59:51;;;;;;;7.80;2.80;;;10.70;99.90;;;;;;4995512;28;20503;-90
2023/03/26 05:02:23;;;;;;;6.07;2.37;;;10.70;99.90;;;;;;4975918;28;20438;-90
2023/03/26 05:04:56;;;;;;;5.73;2.53;;;10.70;99.90;;;;;;4995039;28;20438;-90
2023/03/26 05:07:25;;;;;;;7.97;2.10;;;10.70;99.90;;;;;;4979380;28;20458;-89
2023/03/26 05:09:56;;;;;;;7.60;2.80;;;10.70;99.90;;;;;;4995896;28;20473;-90
2023/03/26 05:12:30;;;;;;;8.10;2.43;;;10.70;99.90;;;;;;5009789;28;20467;-90
2023/03/26 05:15:04;;;;;;;6.40;2.70;;;10.70;99.90;;;;;;4981517;28;20449;-89
2023/03/26 05:17:50;;;;;;;6.23;2.33;;;10.70;99.90;;;;;;5000972;28;20479;-90
2023/03/26 05:20:25;;;;;;;13.27;3.10;;;10.70;99.90;;;;;;4983272;28;20430;-90
2023/03/26 05:22:52;;;;;;;4.97;2.40;;;10.70;99.90;;;;;;4979527;28;20772;-89
2023/03/26 05:25:40;;;;;;;4.77;1.83;;;10.70;99.90;;;;;;4979969;28;20456;-89
2023/03/26 05:28:14;;;;;;;8.30;2.70;;;10.70;99.90;;;;;;4983898;28;20469;-90
2023/03/26 05:30:56;;;;;;;9.47;2.30;;;10.70;99.90;;;;;;4999431;28;20432;-90
2023/03/26 05:33:23;;;;;;;7.90;2.53;;;10.70;99.90;;;;;;4996198;28;20441;-90
2023/03/26 05:36:17;;;;;;;10.83;2.63;;;10.70;99.90;;;;;;4993204;28;20457;-90
2023/03/26 05:38:48;;;;;;;5.13;2.17;;;10.70;99.90;;;;;;4999183;28;20409;-91
2023/03/26 05:41:29;;;;;;;4.13;2.53;;;10.70;99.90;;;;;;4984719;28;20465;-92
2023/03/26 05:44:00;;;;;;;8.23;2.57;;;10.70;99.90;;;;;;4999162;28;20734;-90
2023/03/26 05:46:30;;;;;;;5.33;2.70;;;10.70;99.90;;;;;;4980286;28;20494;-91
2023/03/26 05:48:57;;;;;;;7.03;2.13;;;10.70;99.90;;;;;;4999077;28;20501;-90
2023/03/26 05:51:23;;;;;;;5.87;2.37;;;10.70;99.90;;;;;;4999025;28;20456;-90
2023/03/26 05:54:11;;;;;;;9.37;2.80;;;10.70;99.90;;;;;;4963770;28;20478;-91
2023/03/26 05:57:08;;;;;;;8.07;2.40;;;10.70;99.90;;;;;;5014978;28;20868;-91
2023/03/26 06:00:10;;;;;;;4.83;2.47;;;10.70;99.90;;;;;;4962487;28;20436;-89
2023/03/26 06:02:43;;;;;;;7.80;3.10;;;10.60;99.90;;;;;;4994789;28;20540;-91
2023/03/26 06:05:45;;;;;;;7.00;2.20;;;10.60;99.90;;;;;;4998690;28;20441;-88
2023/03/26 06:08:19;;;;;;;6.77;2.20;;;10.60;99.90;;;;;;4998411;28;20528;-90
2023/03/26 06:10:56;;;;;;;4.70;2.50;;;10.60;99.90;;;;;;5014835;28;20445;-89
2023/03/26 06:13:23;;;;;;;4.20;2.20;;;10.60;99.90;;;;;;4990241;28;20434;-89
2023/03/26 06:15:53;;;;;;;6.90;2.50;;;10.60;99.90;;;;;;4998450;28;20445;-87
2023/03/26 06:18:37;;;;;;;5.00;2.57;;;10.60;99.90;;;;;;5003754;28;20532;-90
2023/03/26 06:21:21;;;;;;;9.47;2.53;;;10.60;99.90;;;;;;4995533;28;20433;-91
2023/03/26 06:23:57;;;;;;;10.57;3.17;;;10.60;99.90;;;;;;5004195;28;20430;-92
2023/03/26 06:26:40;;;;;;;7.33;2.70;;;10.60;99.90;;;;;;4990400;28;20456;-91
2023/03/26 06:29:24;;;;;;;5.20;2.80;;;10.60;99.90;;;;;;4998167;28;20988;-91
2023/03/26 06:32:17;;;;;;;9.10;2.90;;;10.60;99.90;;;;;;4997360;28;20761;-91
2023/03/26 06:34:58;;;;;;;6.33;2.47;;;10.60;99.90;;;;;;4980608;28;20461;-88
2023/03/26 06:37:26;;;;;;;4.77;2.50;;;10.60;99.90;;;;;;4995289;28;20430;-89
2023/03/26 06:39:57;;;;;;;8.27;2.80;;;10.60;99.90;;;;;;4979298;28;20775;-90
2023/03/26 06:42:42;;;;;;;5.57;2.40;;;10.60;99.90;;;;;;4992514;28;20441;-90
2023/03/26 06:45:28;;;;;;;5.00;2.10;;;10.60;99.90;;;;;;4998016;28;20532;-91
2023/03/26 06:48:25;;;;;;;5.77;2.17;;;10.60;99.90;;;;;;5006130;28;20438;-90
2023/03/26 06:51:11;;;;;;;6.80;2.73;;;10.60;99.90;;;;;;4997966;28;20473;-90
2023/03/26 06:54:17;;;;;;;8.50;3.07;;;10.60;99.90;;;;;;4984706;28;20450;-88
2023/03/26 06:56:45;;;;;;;6.50;3.40;;;10.60;99.90;;;;;;5012270;28;20938;-89
2023/03/26 06:59:37;;;;;;;6.43;2.20;;;10.60;99.90;;;;;;4996665;28;20428;-90
2023/03/26 07:02:21;;;;;;;4.53;2.40;;;10.60;99.90;;;;;;4997139;28;20453;-88
2023/03/26 07:05:06;;;;;;;8.67;3.70;;;10.60;99.90;;;;;;4997232;28;20433;-88
2023/03/26 07:07:50;;;;;;;8.97;3.50;;;10.60;99.90;;;;;;4996421;28;20509;-88
2023/03/26 07:10:16;;;;;;;4.17;2.20;;;10.60;99.90;;;;;;4997131;28;20474;-89
2023/03/26 07:12:54;;;;;;;5.23;2.20;;;10.60;99.90;;;;;;4994866;28;20256;-88
2023/03/26 07:15:41;;;;;;;10.33;2.50;;;10.60;99.90;;;;;;4996912;28;20458;-88
2023/03/26 07:18:26;;;;;;;6.90;2.40;;;10.60;99.90;;;;;;4996542;28;20584;-86
2023/03/26 07:20:52;;;;;;;9.07;2.43;;;10.50;99.90;;;;;;4996742;28;20442;-90
2023/03/26 07:23:20;;;;;;;4.43;2.20;;;10.60;99.90;;;;;;4979536;28;20934;-88
2023/03/26 07:25:57;;;;;;;11.33;3.43;;;10.50;99.90;;;;;;5010895;28;20508;-90
2023/03/26 07:28:45;;;;;;;7.13;2.70;;;10.60;99.90;;;;;;4996401;28;21130;-92
2023/03/26 07:31:40;;;;;;;9.00;3.00;;;10.60;99.90;;;;;;5004581;28;20463;-90
2023/03/26 07:34:45;;;;;;;7.70;2.47;;;10.60;99.90;;;;;;4979083;28;20497;-90
2023/03/26 07:37:59;;;;;;;6.03;3.00;;;10.60;99.90;;;;;;4983012;28;20493;-88
2023/03/26 07:41:16;;;;;;;10.53;3.00;;;10.60;99.90;;;;;;4990867;28;20750;-89
2023/03/26 07:44:05;;;;;;;7.10;2.80;;;10.50;99.90;;;;;;5005103;28;20434;-90
2023/03/26 07:46:46;;;;;;;6.30;2.97;;;10.50;99.90;;;;;;4995879;28;20452;-90
2023/03/26 07:49:34;;;;;;;7.70;2.90;;;10.50;99.90;;;;;;4996096;28;20453;-89
2023/03/26 07:52:19;;;;;;;9.03;2.80;;;10.50;99.90;;;;;;4991543;28;20442;-91
2023/03/26 07:55:08;;;;;;;4.53;2.43;;;10.50;99.90;;;;;;4984735;28;20432;-91
2023/03/26 07:57:55;;;;;;;9.83;2.50;;;10.50;99.90;;;;;;4997060;28;20489;-91
2023/03/26 08:00:49;;;;;;;7.20;2.50;;;10.50;99.90;;;;;;4995641;28;20555;-90
2023/03/26 08:03:43;;;;;;;4.43;2.40;;;10.60;99.90;;;;;;4996627;28;20516;-91
2023/03/26 08:06:54;;;;;;;4.97;2.30;;;10.60;99.90;;;;;;5001443;28;20515;-91
2023/03/26 08:09:57;;;;;;;6.97;2.93;;;10.60;99.90;;;;;;4983298;28;20443;-91
2023/03/26 08:13:04;;;;;;;6.40;2.83;;;10.50;99.90;;;;;;4995586;28;20484;-90
2023/03/26 08:15:59;;;;;;;5.60;2.97;;;10.60;99.90;;;;;;4979497;28;20960;-92
2023/03/26 08:18:34;;;;;;;8.90;3.10;;;10.50;99.90;;;;;;4979982;28;20512;-93
2023/03/26 08:21:10;;;;;;;7.50;3.07;;;10.50;99.90;;;;;;4979299;28;20449;-91
2023/03/26 08:23:45;;;;;;;5.43;2.40;;;10.60;99.90;;;;;;4993499;28;21220;-92
2023/03/26 08:26:50;;;;;;;6.17;2.50;;;10.60;99.90;;;;;;4987936;28;20422;-93
2023/03/26 08:29:50;;;;;;;4.67;2.30;;;10.50;99.90;;;;;;4960273;28;20785;-92
2023/03/26 08:32:21;;;;;;;6.87;3.37;;;10.60;99.90;;;;;;4988153;28;20752;-92
2023/03/26 08:34:47;;;;;;;6.13;2.37;;;10.60;99.90;;;;;;4996574;28;20410;-93
2023/03/26 08:37:13;;;;;;;5.77;2.33;;;10.50;99.90;;;;;;4979158;28;20535;-90
2023/03/26 08:39:43;;;;;;;12.30;3.60;;;10.60;99.90;;;;;;4979649;28;20901;-89
2023/03/26 08:42:14;;;;;;;6.00;2.43;;;10.60;99.90;;;;;;4995268;28;20809;-92
2023/03/26 08:44:46;;;;;;;5.53;2.53;;;10.60;99.90;;;;;;4979426;28;20469;-92
2023/03/26 08:47:43;;;;;;;4.67;2.13;;;10.60;99.90;;;;;;4994330;28;20473;-91
2023/03/26 08:50:35;;;;;;;8.47;2.70;;;10.60;99.90;;;;;;4979226;28;20525;-90
2023/03/26 08:53:37;;;;;;;6.30;2.60;;;10.50;99.90;;;;;;4995195;28;20440;-91
2023/03/26 08:56:46;;;;;;;8.33;2.50;;;10.60;99.90;;;;;;4979091;28;20544;-92
2023/03/26 08:59:12;;;;;;;4.53;2.20;;;10.60;99.90;;;;;;4981834;28;20532;-93
2023/03/26 09:02:09;;;;;;;4.80;2.00;;;10.60;99.90;;;;;;4982063;28;20479;-93
2023/03/26 09:05:00;;;;;;;6.40;2.60;;;10.60;99.90;;;;;;4994804;28;20424;-91
2023/03/26 09:07:55;;;;;;;6.80;2.30;;;10.60;99.90;;;;;;4994597;28;20471;-92
2023/03/26 09:10:57;;;;;;;10.27;2.47;;;10.60;99.90;;;;;;4991199;28;20436;-92
2023/03/26 09:13:51;;;;;;;6.03;2.40;;;10.60;99.90;;;;;;4980036;28;20524;-93
2023/03/26 09:16:25;;;;;;;5.10;2.73;;;10.60;99.90;;;;;;4989831;28;20509;-92
2023/03/26 09:19:00;;;;;;;4.50;2.13;;;10.60;99.90;;;;;;4978938;28;20437;-92
2023/03/26 09:21:41;;;;;;;3.60;2.57;;;10.60;99.90;;;;;;4994932;28;20522;-93
2023/03/26 09:24:35;;;;;;;7.43;2.43;;;10.60;99.90;;;;;;4994952;28;20437;-92
2023/03/26 09:27:24;;;;;;;5.57;2.30;;;10.60;99.90;;;;;;4994609;28;20465;-93
2023/03/26 09:30:31;;;;;;;7.93;2.50;;;10.50;99.90;;;;;;4989422;28;20450;-94
2023/03/26 09:32:57;;;;;;;5.00;2.17;;;10.50;99.90;;;;;;4991539;28;20450;-92
2023/03/26 09:35:38;;;;;;;4.63;2.20;;;10.60;99.90;;;;;;4982319;28;20441;-94
2023/03/26 09:38:45;;;;;;;9.57;2.33;;;10.60;99.90;;;;;;4979045;28;20222;-92
2023/03/26 09:41:14;;;;;;;7.87;2.40;;;10.60;99.90;;;;;;4939358;29;20579;-92
2023/03/26 09:43:57;;;;;;;4.60;1.73;;;10.50;99.90;;;;;;4938808;28;20479;-91
2023/03/26 09:46:42;;;;;;;5.30;2.70;;;10.60;99.90;;;;;;4971722;28;20472;-88
2023/03/26 09:49:23;;;;;;;5.67;3.13;;;10.60;99.90;;;;;;4991203;28;20875;-93
2023/03/26 09:52:20;;;;;;;4.43;2.33;;;10.60;99.90;;;;;;4978495;28;20448;-93
2023/03/26 09:55:06;;;;;;;3.40;1.77;;;10.60;99.90;;;;;;4993381;28;20542;-93
2023/03/26 09:57:32;;;;;;;7.23;2.20;;;10.50;99.90;;;;;;4978885;28;20453;-93
2023/03/26 10:00:16;;;;;;;3.17;2.00;;;10.60;99.90;;;;;;4994894;28;20458;-93
2023/03/26 10:03:01;;;;;;;4.73;2.37;;;10.60;99.90;;;;;;4981673;28;20467;-95
2023/03/26 10:05:56;;;;;;;7.30;2.10;;;10.60;99.90;;;;;;4998746;28;20782;-94
2023/03/26 10:08:43;;;;;;;4.60;2.10;;;10.60;99.90;;;;;;4980242;28;21019;-93
2023/03/26 10:11:12;;;;;;;4.03;2.40;;;10.60;99.90;;;;;;4982137;28;20419;-91
2023/03/26 10:14:13;;;;;;;4.50;1.97;;;10.60;99.90;;;;;;4982054;28;20440;-93
2023/03/26 10:17:11;;;;;;;4.27;2.40;;;10.60;99.90;;;;;;5001120;28;20451;-93
2023/03/26 10:19:55;;;;;;;4.83;2.00;;;10.60;99.90;;;;;;4997901;28;20540;-93
2023/03/26 10:22:28;;;;;;;5.10;2.10;;;10.60;99.90;;;;;;4993721;28;20461;-92
2023/03/26 10:25:12;;;;;;;5.23;1.80;;;10.60;99.90;;;;;;4995186;28;20748;-92
2023/03/26 10:27:43;;;;;;;7.30;1.93;;;10.60;99.90;;;;;;4994613;28;20457;-92
2023/03/26 10:30:37;;;;;;;3.70;1.97;;;10.60;99.90;;;;;;4978772;28;20415;-92
2023/03/26 10:33:38;;;;;;;4.10;2.07;;;10.60;99.90;;;;;;4974160;28;20529;-91
2023/03/26 10:36:26;;;;;;;3.03;1.77;;;10.60;99.90;;;;;;4994880;28;20507;-92
2023/03/26 10:38:59;;;;;;;3.10;1.87;;;10.60;99.90;;;;;;4996789;28;20435;-94
2023/03/26 10:41:40;;;;;;;5.37;1.50;;;10.60;99.90;;;;;;4981651;28;20414;-93
2023/03/26 10:44:34;;;;;;;3.63;1.77;;;10.60;99.90;;;;;;4981262;28;20437;-92
2023/03/26 10:47:33;;;;;;;3.27;1.77;;;10.60;99.90;;;;;;4996884;28;20521;-90
2023/03/26 10:50:19;;;;;;;2.80;1.30;;;10.60;99.90;;;;;;4998119;28;20455;-91
2023/03/26 10:53:00;;;;;;;7.53;1.97;;;10.60;99.90;;;;;;4993759;28;20435;-93
2023/03/26 10:55:51;;;;;;;2.23;1.40;;;10.60;99.90;;;;;;4992499;28;20433;-91
2023/03/26 10:58:31;;;;;;;2.43;1.80;;;10.60;99.90;;;;;;4988802;28;20444;-93
2023/03/26 11:01:03;;;;;;;2.50;1.50;;;10.60;99.90;;;;;;4996851;28;20775;-91
2023/03/26 11:03:50;;;;;;;2.57;1.50;;;10.60;99.90;;;;;;4997157;28;20536;-90
2023/03/26 11:06:16;;;;;;;2.43;1.30;;;10.60;99.90;;;;;;4997197;28;20452;-89
2023/03/26 11:08:54;;;;;;;3.70;2.17;;;10.60;99.90;;;;;;4981518;28;20876;-91
2023/03/26 11:11:20;;;;;;;3.60;1.40;;;10.60;99.90;;;;;;5008016;28;20183;-91
2023/03/26 11:13:59;;;;;;;2.20;1.20;;;10.60;99.90;;;;;;5018909;28;20529;-91
2023/03/26 11:17:00;;;;;;;2.17;1.23;;;10.60;99.90;;;;;;4998356;28;20275;-91
2023/03/26 11:19:38;;;;;;;6.43;1.43;;;10.60;99.90;;;;;;4997577;28;20552;-91
2023/03/26 11:22:33;;;;;;;4.13;1.43;;;10.60;99.90;;;;;;4997399;28;20436;-90
2023/03/26 11:25:17;;;;;;;1.10;0.90;;;10.60;99.90;;;;;;5013191;28;20464;-91
2023/03/26 11:28:02;;;;;;;2.30;1.17;;;10.60;99.90;;;;;;4980744;28;20484;-91
2023/03/26 11:30:47;;;;;;;2.17;1.30;;;10.60;99.90;;;;;;4996978;28;20421;-89
2023/03/26 11:33:23;;;;;;;2.77;1.43;;;10.60;99.90;;;;;;4978099;28;20426;-90
2023/03/26 11:36:00;;;;;;;2.17;1.10;;;10.60;99.90;;;;;;4983071;28;20421;-91
2023/03/26 11:38:36;;;;;;;2.30;1.43;;;10.60;99.90;;;;;;4997361;28;20476;-90
2023/03/26 11:41:10;;;;;;;2.03;1.17;;;10.70;99.90;;;;;;4980562;28;20515;-90
2023/03/26 11:43:52;;;;;;;3.50;1.20;;;10.60;99.90;;;;;;5011516;28;20445;-92
2023/03/26 11:46:22;;;;;;;2.00;1.40;;;10.70;99.90;;;;;;4997473;28;20475;-91
2023/03/26 11:49:10;;;;;;;1.80;1.20;;;10.60;99.90;;;;;;4993159;28;20458;-91
2023/03/26 11:51:38;;;;;;;2.40;1.10;;;10.60;99.90;;;;;;4977239;28;20449;-91
2023/03/26 11:54:09;;;;;;;2.57;1.30;;;10.70;99.90;;;;;;5006983;28;20774;-91
2023/03/26 11:56:46;;;;;;;2.80;1.10;;;10.60;99.90;;;;;;4988113;28;20460;-91
2023/03/26 11:59:34;;;;;;;1.77;1.03;;;10.70;99.90;;;;;;4980657;28;20820;-92
2023/03/26 12:02:05;;;;;;;2.10;1.13;;;10.70;99.90;;;;;;4998908;28;20492;-89
2023/03/26 12:04:35;;;;;;;2.20;1.70;;;10.70;99.90;;;;;;4997276;28;20502;-91
2023/03/26 12:07:32;;;;;;;2.20;1.77;;;10.70;99.90;;;;;;4997263;28;20468;-91
2023/03/26 12:10:03;;;;;;;2.00;1.37;;;10.70;99.90;;;;;;5012654;28;20911;-90
2023/03/26 12:12:37;;;;;;;1.70;0.97;;;10.70;99.90;;;;;;4996495;28;20431;-89
2023/03/26 12:15:18;;;;;;;2.10;1.40;;;10.70;99.90;;;;;;4995579;28;20511;-91
2023/03/26 12:17:52;;;;;;;2.23;1.13;;;10.70;99.90;;;;;;5012362;28;20794;-90
2023/03/26 12:20:24;;;;;;;2.87;1.00;;;10.70;99.90;;;;;;4980126;28;20791;-89
2023/03/26 12:22:57;;;;;;;1.20;1.07;;;10.80;99.90;;;;;;4979715;28;20458;-88
2023/03/26 12:25:28;;;;;;;1.10;1.00;;;10.70;99.90;;;;;;4979574;28;20854;-89
2023/03/26 12:28:14;;;;;;;2.87;1.60;;;10.80;99.90;;;;;;4976343;28;20549;-90
2023/03/26 12:30:51;;;;;;;1.97;1.57;;;10.80;99.90;;;;;;5011621;28;20413;-90
2023/03/26 12:33:28;;;;;;;1.80;0.90;;;10.80;99.90;;;;;;4996923;28;20431;-90
2023/03/26 12:35:59;;;;;;;1.60;1.27;;;10.80;99.90;;;;;;4995593;28;20501;-90
2023/03/26 12:38:34;;;;;;;2.20;1.60;;;10.80;99.90;;;;;;4995908;28;20494;-91
2023/03/26 12:41:17;;;;;;;2.90;1.50;;;10.80;99.90;;;;;;4995998;28;20469;-90
2023/03/26 12:43:46;;;;;;;2.23;1.80;;;10.80;99.90;;;;;;4979916;28;20771;-90
2023/03/26 12:46:30;;;;;;;3.70;2.63;;;10.80;99.90;;;;;;5007143;28;20531;-91
2023/03/26 12:49:05;;;;;;;2.70;2.10;;;10.80;99.90;;;;;;4996573;28;20402;-91
2023/03/26 12:51:48;;;;;;;3.00;2.43;;;10.80;99.90;;;;;;4995537;28;20424;-89
2023/03/26 12:54:25;;;;;;;2.97;2.60;;;10.80;99.90;;;;;;4996249;28;20454;-90
2023/03/26 12:57:15;;;;;;;3.10;2.07;;;10.80;99.90;;;;;;4977259;28;20414;-88
2023/03/26 13:00:00;;;;;;;2.40;2.20;;;10.80;99.90;;;;;;5008549;28;20752;-89
2023/03/26 13:02:52;;;;;;;3.83;2.57;;;10.80;99.90;;;;;;4995410;28;20421;-90
2023/03/26 13:05:50;;;;;;;2.90;2.60;;;10.90;99.90;;;;;;4979183;28;20417;-91
2023/03/26 13:08:25;;;;;;;3.60;2.20;;;10.90;99.90;;;;;;5007839;28;20481;-90
2023/03/26 13:11:12;;;;;;;6.10;2.70;;;10.80;99.90;;;;;;4995228;28;20511;-91
2023/03/26 13:13:59;;;;;;;2.73;2.10;;;10.80;99.90;;;;;;5011022;28;20467;-89
2023/03/26 13:16:28;;;;;;;2.60;2.27;;;10.80;99.90;;;;;;4995923;28;20534;-90
2023/03/26 13:19:14;;;;;;;2.17;1.97;;;10.90;99.90;;;;;;4995306;28;20411;-89
2023/03/26 13:21:52;;;;;;;2.57;2.20;;;10.90;99.90;;;;;;5007969;28;20851;-89
2023/03/26 13:24:39;;;;;;;2.90;2.10;;;10.90;99.90;;;;;;4995317;28;20406;-88
2023/03/26 13:27:25;;;;;;;3.80;2.00;;;10.90;99.90;;;;;;4979940;28;20477;-90
2023/03/26 13:30:00;;;;;;;2.43;1.73;;;10.90;99.90;;;;;;4995290;28;20443;-88
2023/03/26 13:32:32;;;;;;;2.27;2.00;;;11.00;99.90;;;;;;4994943;28;20472;-89
2023/03/26 13:35:34;;;;;;;4.00;2.20;;;11.00;99.90;;;;;;4990819;28;20472;-88
2023/03/26 13:38:17;;;;;;;2.60;1.90;;;11.00;99.90;;;;;;4998581;28;20452;-89
2023/03/26 13:41:47;;;;;;;2.27;1.93;;;11.00;99.90;;;;;;4998795;28;20485;-88
2023/03/26 13:44:16;;;;;;;2.87;1.97;;;11.00;99.90;;;;;;4923504;29;20438;-89
2023/03/26 13:46:47;;;;;;;1.80;1.40;;;11.00;99.90;;;;;;4967703;28;20528;-89
2023/03/26 13:49:35;;;;;;;1.83;1.60;;;11.00;99.90;;;;;;4998761;28;20497;-89